createdAt,value
2023-03-27T00:00:04.483Z,1.20
2023-03-27T00:01:04.407Z,1.00
2023-03-27T00:02:04.426Z,1.30
2023-03-27T00:03:04.496Z,1.00
2023-03-27T00:04:04.387Z,1.10
2023-03-27T00:05:04.362Z,1.10
2023-03-27T00:06:04.370Z,1.20
2023-03-27T00:07:04.338Z,1.60
2023-03-27T00:08:04.341Z,1.50
2023-03-27T00:09:04.315Z,0.90
2023-03-27T00:10:04.309Z,0.90
2023-03-27T00:11:04.303Z,1.20
2023-03-27T00:12:04.498Z,1.30
2023-03-27T00:13:04.258Z,1.10
2023-03-27T00:14:04.250Z,0.90
2023-03-27T00:15:04.213Z,1.10
2023-03-27T00:16:04.251Z,1.50
2023-03-27T00:17:04.238Z,1.10
2023-03-27T00:18:04.279Z,1.10
2023-03-27T00:19:04.164Z,1.40
2023-03-27T00:20:04.164Z,1.40
2023-03-27T00:21:04.167Z,1.30
2023-03-27T00:22:04.196Z,0.70
2023-03-27T00:23:04.145Z,1.10
2023-03-27T00:24:04.109Z,1.30
2023-03-27T00:25:04.111Z,1.30
2023-03-27T00:26:04.129Z,0.70
2023-03-27T00:27:04.087Z,0.80
2023-03-27T00:28:04.081Z,1.20
2023-03-27T00:29:04.055Z,1.00
2023-03-27T00:30:04.093Z,1.30
2023-03-27T00:31:04.020Z,1.10
2023-03-27T00:32:04.017Z,0.90
2023-03-27T00:33:04.076Z,0.80
2023-03-27T00:34:03.985Z,0.70
2023-03-27T00:35:03.972Z,0.90
2023-03-27T00:36:03.989Z,1.00
2023-03-27T00:37:03.963Z,1.00
2023-03-27T00:38:03.917Z,0.80
2023-03-27T00:39:03.938Z,1.20
2023-03-27T00:40:03.918Z,1.00
2023-03-27T00:41:03.937Z,0.90
2023-03-27T00:42:03.905Z,0.90
2023-03-27T00:43:03.878Z,0.80
2023-03-27T00:44:03.849Z,1.00
2023-03-27T00:45:03.852Z,1.30
2023-03-27T00:46:03.854Z,0.80
2023-03-27T00:47:03.790Z,0.90
2023-03-27T00:48:03.810Z,0.90
2023-03-27T00:49:03.811Z,1.40
2023-03-27T00:50:03.815Z,1.40
2023-03-27T00:51:03.766Z,1.00
2023-03-27T00:52:03.817Z,0.80
2023-03-27T00:53:03.724Z,0.60
2023-03-27T00:54:03.719Z,1.10
2023-03-27T00:55:03.709Z,0.80
2023-03-27T00:56:03.773Z,1.00
2023-03-27T00:57:03.693Z,0.80
2023-03-27T00:58:03.662Z,0.90
2023-03-27T00:59:03.647Z,0.60
2023-03-27T01:00:03.621Z,1.10
2023-03-27T01:01:03.673Z,0.80
2023-03-27T01:02:03.609Z,1.10
2023-03-27T01:03:03.643Z,0.60
2023-03-27T01:04:03.568Z,0.80
2023-03-27T01:05:03.553Z,1.00
2023-03-27T01:06:03.591Z,0.80
2023-03-27T01:07:03.544Z,0.70
2023-03-27T01:08:03.525Z,0.80
2023-03-27T01:09:03.518Z,0.90
2023-03-27T01:10:03.498Z,0.90
2023-03-27T01:11:03.464Z,0.80
2023-03-27T01:12:03.479Z,0.80
2023-03-27T01:13:03.457Z,0.90
2023-03-27T01:14:03.447Z,0.70
2023-03-27T01:15:03.405Z,1.20
2023-03-27T01:16:03.442Z,1.00
2023-03-27T01:17:03.431Z,1.00
2023-03-27T01:18:03.447Z,0.90
2023-03-27T01:19:03.404Z,0.60
2023-03-27T01:20:03.366Z,1.30
2023-03-27T01:21:03.325Z,1.10
2023-03-27T01:22:03.378Z,1.00
2023-03-27T01:23:03.316Z,0.80
2023-03-27T01:24:03.340Z,1.00
2023-03-27T01:25:03.286Z,1.10
2023-03-27T01:26:03.273Z,0.90
2023-03-27T01:27:03.276Z,0.90
2023-03-27T01:28:03.282Z,1.30
2023-03-27T01:29:03.244Z,1.00
2023-03-27T01:30:03.243Z,1.10
2023-03-27T01:31:03.264Z,1.00
2023-03-27T01:32:03.221Z,1.20
2023-03-27T01:33:03.233Z,1.20
2023-03-27T01:34:03.183Z,1.30
2023-03-27T01:35:03.660Z,1.20
2023-03-27T01:36:03.173Z,1.20
2023-03-27T01:37:03.134Z,1.00
2023-03-27T01:38:03.108Z,1.10
2023-03-27T01:39:03.097Z,1.00
2023-03-27T01:40:03.080Z,1.00
2023-03-27T01:41:03.107Z,1.20
2023-03-27T01:42:03.083Z,1.10
2023-03-27T01:43:03.044Z,1.30
2023-03-27T01:44:03.029Z,0.80
2023-03-27T01:45:03.039Z,0.90
2023-03-27T01:46:03.001Z,0.80
2023-03-27T01:47:03.008Z,0.80
2023-03-27T01:48:03.042Z,1.10
2023-03-27T01:49:02.982Z,1.20
2023-03-27T01:50:02.983Z,1.20
2023-03-27T01:51:02.926Z,1.30
2023-03-27T01:52:02.992Z,1.50
2023-03-27T01:53:02.919Z,1.10
2023-03-27T01:54:02.920Z,1.10
2023-03-27T01:55:02.888Z,1.60
2023-03-27T01:56:02.866Z,0.80
2023-03-27T01:57:02.909Z,1.20
2023-03-27T01:58:02.855Z,1.00
2023-03-27T01:59:02.850Z,1.10
2023-03-27T02:00:18.386Z,1.40
2023-03-27T02:01:02.858Z,0.90
2023-03-27T02:02:02.833Z,1.20
2023-03-27T02:03:02.810Z,0.90
2023-03-27T02:04:02.786Z,1.20
2023-03-27T02:05:02.767Z,1.50
2023-03-27T02:06:02.793Z,1.20
2023-03-27T02:07:02.732Z,1.10
2023-03-27T02:08:02.717Z,1.20
2023-03-27T02:09:02.688Z,0.70
2023-03-27T02:10:02.701Z,1.00
2023-03-27T02:11:02.670Z,0.70
2023-03-27T02:12:02.713Z,1.10
2023-03-27T02:13:02.652Z,0.80
2023-03-27T02:14:02.639Z,1.10
2023-03-27T02:15:23.053Z,1.20
2023-03-27T02:16:02.616Z,0.70
2023-03-27T02:17:02.584Z,1.00
2023-03-27T02:18:02.637Z,1.00
2023-03-27T02:19:02.567Z,1.20
2023-03-27T02:20:02.565Z,0.90
2023-03-27T02:21:02.543Z,1.10
2023-03-27T02:22:02.533Z,1.00
2023-03-27T02:23:02.494Z,1.00
2023-03-27T02:24:02.591Z,0.90
2023-03-27T02:25:02.506Z,0.80
2023-03-27T02:26:02.488Z,0.90
2023-03-27T02:27:02.497Z,0.80
2023-03-27T02:28:02.435Z,1.10
2023-03-27T02:29:02.452Z,1.00
2023-03-27T02:30:02.474Z,1.30
2023-03-27T02:31:06.984Z,0.90
2023-03-27T02:32:02.571Z,1.10
2023-03-27T02:33:02.479Z,0.80
2023-03-27T02:34:02.359Z,1.20
2023-03-27T02:35:02.352Z,0.70
2023-03-27T02:36:02.353Z,1.00
2023-03-27T02:37:02.411Z,0.90
2023-03-27T02:38:02.319Z,1.10
2023-03-27T02:39:02.319Z,0.70
2023-03-27T02:40:02.364Z,1.10
2023-03-27T02:41:02.269Z,0.90
2023-03-27T02:42:02.248Z,1.00
2023-03-27T02:43:02.287Z,0.70
2023-03-27T02:44:02.217Z,0.90
2023-03-27T02:45:02.253Z,0.90
2023-03-27T02:46:02.245Z,0.80
2023-03-27T02:47:02.214Z,1.00
2023-03-27T02:48:02.246Z,0.70
2023-03-27T02:49:02.156Z,0.70
2023-03-27T02:50:02.167Z,0.50
2023-03-27T02:51:02.187Z,0.70
2023-03-27T02:52:02.128Z,0.90
2023-03-27T02:53:02.163Z,0.90
2023-03-27T02:54:02.093Z,0.70
2023-03-27T02:55:02.130Z,0.60
2023-03-27T02:56:02.060Z,0.90
2023-03-27T02:57:02.140Z,0.70
2023-03-27T02:58:02.052Z,0.70
2023-03-27T02:59:02.043Z,0.80
2023-03-27T03:00:02.035Z,1.00
2023-03-27T03:01:02.036Z,0.60
2023-03-27T03:02:02.004Z,0.60
2023-03-27T03:03:02.069Z,0.80
2023-03-27T03:04:01.972Z,0.80
2023-03-27T03:05:01.963Z,1.00
2023-03-27T03:06:01.926Z,0.60
2023-03-27T03:07:01.918Z,0.70
2023-03-27T03:08:01.941Z,0.70
2023-03-27T03:09:01.908Z,0.80
2023-03-27T03:10:01.869Z,0.70
2023-03-27T03:11:01.934Z,0.50
2023-03-27T03:12:01.878Z,1.00
2023-03-27T03:13:01.850Z,0.60
2023-03-27T03:14:01.834Z,0.80
2023-03-27T03:15:01.811Z,0.80
2023-03-27T03:16:01.831Z,0.90
2023-03-27T03:17:01.851Z,0.90
2023-03-27T03:18:01.819Z,0.80
2023-03-27T03:19:01.794Z,0.60
2023-03-27T03:20:01.767Z,0.70
2023-03-27T03:21:01.751Z,0.80
2023-03-27T03:22:01.753Z,0.70
2023-03-27T03:23:01.738Z,0.60
2023-03-27T03:24:01.706Z,0.60
2023-03-27T03:25:01.714Z,0.60
2023-03-27T03:26:01.690Z,0.70
2023-03-27T03:27:01.682Z,0.50
2023-03-27T03:28:01.675Z,0.40
2023-03-27T03:29:01.905Z,0.60
2023-03-27T03:30:01.614Z,0.40
2023-03-27T03:31:01.671Z,0.60
2023-03-27T03:32:01.625Z,0.50
2023-03-27T03:33:01.651Z,0.50
2023-03-27T03:34:01.571Z,0.60
2023-03-27T03:35:01.755Z,0.90
2023-03-27T03:36:01.593Z,0.60
2023-03-27T03:37:01.530Z,0.60
2023-03-27T03:38:01.526Z,0.80
2023-03-27T03:39:01.514Z,0.50
2023-03-27T03:40:01.511Z,0.50
2023-03-27T03:41:01.476Z,0.70
2023-03-27T03:42:01.476Z,0.40
2023-03-27T03:43:01.445Z,0.60
2023-03-27T03:44:01.440Z,0.50
2023-03-27T03:45:01.465Z,0.50
2023-03-27T03:46:01.462Z,0.40
2023-03-27T03:47:01.402Z,0.70
2023-03-27T03:48:01.489Z,0.50
2023-03-27T03:49:01.380Z,0.70
2023-03-27T03:50:01.356Z,0.60
2023-03-27T03:51:01.347Z,0.50
2023-03-27T03:52:04.505Z,0.60
2023-03-27T03:53:01.332Z,0.60
2023-03-27T03:54:01.325Z,0.60
2023-03-27T03:55:01.328Z,0.60
2023-03-27T03:56:01.260Z,0.50
2023-03-27T03:57:01.292Z,0.60
2023-03-27T03:58:01.249Z,0.80
2023-03-27T03:59:01.265Z,1.50
2023-03-27T04:00:01.228Z,0.60
2023-03-27T04:01:01.223Z,0.50
2023-03-27T04:02:01.253Z,0.40
2023-03-27T04:03:01.276Z,0.70
2023-03-27T04:04:01.172Z,0.40
2023-03-27T04:05:01.156Z,0.60
2023-03-27T04:06:01.174Z,0.80
2023-03-27T04:07:01.128Z,0.50
2023-03-27T04:08:01.117Z,0.60
2023-03-27T04:09:01.116Z,0.70
2023-03-27T04:10:01.101Z,0.60
2023-03-27T04:11:01.128Z,0.80
2023-03-27T04:12:01.118Z,0.80
2023-03-27T04:13:01.137Z,0.80
2023-03-27T04:14:01.109Z,0.80
2023-03-27T04:15:01.018Z,0.80
2023-03-27T04:16:01.059Z,0.60
2023-03-27T04:17:01.031Z,0.90
2023-03-27T04:18:01.205Z,1.20
2023-03-27T04:19:00.978Z,0.70
2023-03-27T04:20:00.971Z,1.00
2023-03-27T04:21:00.965Z,0.70
2023-03-27T04:22:00.925Z,0.80
2023-03-27T04:23:00.973Z,0.90
2023-03-27T04:24:00.917Z,0.60
2023-03-27T04:25:00.920Z,0.70
2023-03-27T04:26:00.976Z,1.00
2023-03-27T04:27:00.894Z,0.70
2023-03-27T04:28:00.862Z,0.60
2023-03-27T04:29:00.883Z,0.60
2023-03-27T04:30:00.845Z,0.70
2023-03-27T04:31:00.896Z,0.90
2023-03-27T04:32:00.816Z,1.20
2023-03-27T04:33:00.846Z,0.80
2023-03-27T04:34:00.770Z,0.90
2023-03-27T04:35:00.814Z,0.70
2023-03-27T04:36:07.429Z,0.70
2023-03-27T04:37:00.782Z,0.90
2023-03-27T04:38:00.736Z,0.80
2023-03-27T04:39:00.736Z,0.70
2023-03-27T04:40:00.705Z,0.80
2023-03-27T04:41:00.728Z,0.80
2023-03-27T04:42:00.781Z,0.80
2023-03-27T04:43:00.696Z,0.80
2023-03-27T04:44:00.704Z,0.70
2023-03-27T04:45:00.661Z,0.90
2023-03-27T04:46:00.640Z,0.60
2023-03-27T04:47:00.688Z,1.00
2023-03-27T04:48:00.688Z,1.10
2023-03-27T04:49:00.624Z,0.80
2023-03-27T04:50:00.575Z,0.90
2023-03-27T04:51:00.596Z,0.70
2023-03-27T04:52:00.550Z,0.80
2023-03-27T04:53:00.594Z,0.80
2023-03-27T04:54:00.545Z,0.70
2023-03-27T04:55:00.537Z,0.80
2023-03-27T04:56:00.516Z,0.60
2023-03-27T04:57:00.537Z,0.60
2023-03-27T04:58:00.506Z,0.70
2023-03-27T04:59:00.462Z,1.00
2023-03-27T05:00:00.442Z,1.00
2023-03-27T05:01:00.659Z,0.80
2023-03-27T05:02:00.468Z,0.90
2023-03-27T05:03:00.590Z,1.00
2023-03-27T05:04:00.473Z,0.90
2023-03-27T05:05:00.399Z,0.90
2023-03-27T05:06:00.409Z,0.70
2023-03-27T05:07:00.385Z,1.10
2023-03-27T05:08:00.377Z,1.20
2023-03-27T05:09:00.352Z,0.80
2023-03-27T05:10:00.339Z,0.70
2023-03-27T05:11:00.313Z,0.70
2023-03-27T05:12:00.287Z,0.90
2023-03-27T05:13:00.291Z,0.60
2023-03-27T05:14:00.294Z,1.00
2023-03-27T05:15:00.268Z,0.80
2023-03-27T05:16:00.280Z,1.00
2023-03-27T05:17:00.271Z,0.80
2023-03-27T05:18:00.265Z,1.40
2023-03-27T05:19:00.253Z,1.90
2023-03-27T05:20:00.242Z,1.70
2023-03-27T05:21:00.178Z,1.50
2023-03-27T05:22:00.196Z,1.40
2023-03-27T05:23:00.170Z,1.50
2023-03-27T05:24:00.205Z,1.10
2023-03-27T05:25:00.140Z,0.90
2023-03-27T05:26:00.993Z,1.30
2023-03-27T05:27:00.126Z,1.10
2023-03-27T05:28:00.130Z,1.30
2023-03-27T05:29:00.119Z,0.90
2023-03-27T05:30:00.149Z,1.20
2023-03-27T05:31:00.404Z,1.00
2023-03-27T05:32:01.420Z,1.10
2023-03-27T05:33:00.036Z,0.80
2023-03-27T05:34:00.000Z,0.90
2023-03-27T05:35:00.042Z,0.80
2023-03-27T05:36:00.017Z,1.00
2023-03-27T05:36:59.986Z,1.10
2023-03-27T05:37:59.964Z,0.70
2023-03-27T05:38:59.964Z,0.80
2023-03-27T05:39:59.969Z,0.60
2023-03-27T05:40:59.922Z,0.90
2023-03-27T05:41:59.927Z,0.80
2023-03-27T05:42:59.898Z,1.00
2023-03-27T05:43:59.883Z,0.60
2023-03-27T05:44:59.921Z,1.00
2023-03-27T05:45:59.898Z,1.00
2023-03-27T05:46:59.880Z,0.70
2023-03-27T05:47:59.893Z,0.90
2023-03-27T05:48:59.834Z,0.60
2023-03-27T05:49:59.853Z,1.00
2023-03-27T05:50:59.805Z,0.80
2023-03-27T05:51:59.807Z,0.80
2023-03-27T05:52:59.803Z,0.70
2023-03-27T05:53:59.755Z,1.00
2023-03-27T05:54:59.756Z,0.70
2023-03-27T05:56:02.493Z,0.90
2023-03-27T05:56:59.797Z,0.90
2023-03-27T05:57:59.726Z,1.00
2023-03-27T05:58:59.690Z,1.10
2023-03-27T05:59:59.695Z,0.70
2023-03-27T06:00:59.707Z,1.20
2023-03-27T06:01:59.643Z,1.10
2023-03-27T06:02:59.721Z,0.90
2023-03-27T06:03:59.754Z,0.90
2023-03-27T06:04:59.656Z,1.20
2023-03-27T06:05:59.650Z,1.00
2023-03-27T06:06:59.598Z,0.90
2023-03-27T06:07:59.600Z,0.90
2023-03-27T06:08:59.620Z,0.80
2023-03-27T06:09:59.578Z,1.00
2023-03-27T06:10:59.646Z,1.20
2023-03-27T06:11:59.571Z,1.10
2023-03-27T06:12:59.581Z,1.20
2023-03-27T06:13:59.559Z,0.90
2023-03-27T06:14:59.528Z,1.10
2023-03-27T06:15:59.925Z,1.60
2023-03-27T06:16:59.540Z,1.10
2023-03-27T06:17:59.496Z,1.30
2023-03-27T06:18:59.438Z,1.70
2023-03-27T06:19:59.442Z,2.00
2023-03-27T06:20:59.475Z,1.40
2023-03-27T06:21:59.475Z,1.80
2023-03-27T06:22:59.421Z,1.80
2023-03-27T06:23:59.394Z,1.40
2023-03-27T06:24:59.436Z,1.30
2023-03-27T06:25:59.396Z,1.50
2023-03-27T06:26:59.384Z,1.90
2023-03-27T06:27:59.358Z,1.20
2023-03-27T06:28:59.347Z,0.90
2023-03-27T06:29:59.297Z,1.20
2023-03-27T06:30:59.361Z,1.30
2023-03-27T06:31:59.274Z,1.10
2023-03-27T06:32:59.328Z,0.90
2023-03-27T06:33:59.247Z,0.80
2023-03-27T06:34:59.280Z,0.90
2023-03-27T06:35:59.757Z,0.80
2023-03-27T06:36:59.228Z,0.80
2023-03-27T06:37:59.238Z,0.70
2023-03-27T06:38:59.220Z,0.90
2023-03-27T06:39:59.239Z,0.90
2023-03-27T06:40:59.164Z,0.80
2023-03-27T06:41:59.164Z,0.80
2023-03-27T06:42:59.126Z,1.00
2023-03-27T06:43:59.137Z,0.90
2023-03-27T06:44:59.139Z,1.00
2023-03-27T06:45:59.245Z,0.80
2023-03-27T06:46:59.117Z,0.80
2023-03-27T06:48:15.325Z,0.70
2023-03-27T06:48:59.057Z,0.50
2023-03-27T06:49:59.068Z,0.50
2023-03-27T06:50:59.183Z,0.70
2023-03-27T06:51:59.033Z,0.70
2023-03-27T06:52:59.018Z,0.60
2023-03-27T06:53:58.996Z,0.60
2023-03-27T06:54:58.992Z,0.60
2023-03-27T06:55:59.185Z,0.90
2023-03-27T06:56:59.021Z,0.70
2023-03-27T06:57:58.952Z,0.90
2023-03-27T06:58:58.938Z,0.80
2023-03-27T07:00:01.677Z,0.70
2023-03-27T07:00:58.891Z,0.70
2023-03-27T07:01:58.918Z,0.60
2023-03-27T07:02:58.948Z,0.50
2023-03-27T07:03:58.892Z,0.80
2023-03-27T07:05:04.926Z,0.60
2023-03-27T07:05:59.059Z,0.60
2023-03-27T07:06:58.821Z,0.70
2023-03-27T07:08:01.190Z,0.60
2023-03-27T07:08:58.812Z,0.80
2023-03-27T07:09:58.777Z,0.80
2023-03-27T07:11:10.764Z,0.70
2023-03-27T07:11:58.759Z,0.60
2023-03-27T07:12:58.728Z,0.60
2023-03-27T07:13:58.784Z,0.60
2023-03-27T07:14:58.726Z,1.20
2023-03-27T07:15:58.745Z,0.90
2023-03-27T07:16:58.692Z,0.90
2023-03-27T07:17:58.676Z,2.20
2023-03-27T07:19:01.687Z,1.70
2023-03-27T07:19:58.940Z,4.20
2023-03-27T07:20:58.984Z,1.90
2023-03-27T07:21:58.624Z,1.50
2023-03-27T07:22:58.619Z,1.80
2023-03-27T07:23:58.602Z,1.60
2023-03-27T07:24:58.599Z,1.30
2023-03-27T07:25:58.924Z,1.70
2023-03-27T07:26:58.555Z,3.00
2023-03-27T07:27:58.570Z,2.60
2023-03-27T07:29:00.132Z,2.90
2023-03-27T07:29:58.536Z,1.80
2023-03-27T07:30:58.724Z,1.50
2023-03-27T07:32:01.583Z,1.40
2023-03-27T07:32:58.525Z,2.60
2023-03-27T07:33:58.547Z,1.30
2023-03-27T07:34:58.476Z,1.10
2023-03-27T07:35:58.798Z,0.70
2023-03-27T07:36:58.435Z,1.40
2023-03-27T07:37:58.441Z,0.90
2023-03-27T07:38:58.385Z,0.80
2023-03-27T07:39:58.421Z,1.80
2023-03-27T07:40:58.363Z,1.20
2023-03-27T07:41:58.402Z,1.40
2023-03-27T07:42:58.353Z,1.50
2023-03-27T07:43:58.364Z,1.00
2023-03-27T07:44:58.333Z,1.10
2023-03-27T07:45:58.533Z,1.10
2023-03-27T07:46:58.298Z,0.90
2023-03-27T07:47:58.333Z,1.50
2023-03-27T07:48:58.274Z,1.00
2023-03-27T07:49:58.292Z,1.00
2023-03-27T07:51:03.573Z,1.00
2023-03-27T07:51:58.239Z,0.70
2023-03-27T07:52:58.206Z,0.80
2023-03-27T07:53:58.233Z,0.80
2023-03-27T07:54:58.191Z,0.80
2023-03-27T07:55:58.245Z,0.80
2023-03-27T07:56:58.209Z,0.80
2023-03-27T07:58:01.616Z,0.70
2023-03-27T07:58:58.146Z,0.60
2023-03-27T07:59:58.155Z,1.10
2023-03-27T08:00:58.128Z,1.10
2023-03-27T08:01:58.114Z,0.80
2023-03-27T08:02:58.195Z,0.90
2023-03-27T08:03:58.179Z,0.70
2023-03-27T08:04:58.201Z,0.50
2023-03-27T08:05:58.357Z,0.70
2023-03-27T08:06:58.046Z,0.70
2023-03-27T08:07:58.040Z,0.80
2023-03-27T08:08:58.017Z,3.40
2023-03-27T08:09:57.998Z,1.40
2023-03-27T08:10:57.980Z,0.90
2023-03-27T08:11:57.979Z,1.60
2023-03-27T08:12:57.956Z,2.30
2023-03-27T08:13:57.944Z,3.00
2023-03-27T08:14:57.912Z,3.90
2023-03-27T08:15:58.183Z,3.30
2023-03-27T08:17:12.345Z,2.30
2023-03-27T08:17:57.942Z,1.90
2023-03-27T08:18:57.881Z,0.80
2023-03-27T08:19:57.893Z,0.80
2023-03-27T08:20:57.834Z,0.90
2023-03-27T08:21:57.859Z,0.80
2023-03-27T08:22:57.859Z,2.70
2023-03-27T08:23:57.921Z,2.70
2023-03-27T08:24:57.804Z,2.20
2023-03-27T08:25:57.799Z,2.30
2023-03-27T08:26:57.785Z,2.40
2023-03-27T08:27:57.769Z,2.10
2023-03-27T08:28:57.761Z,3.70
2023-03-27T08:29:57.747Z,1.70
2023-03-27T08:31:02.504Z,2.40
2023-03-27T08:31:57.733Z,5.20
2023-03-27T08:32:57.762Z,2.80
2023-03-27T08:33:57.674Z,2.60
2023-03-27T08:34:57.644Z,5.30
2023-03-27T08:35:57.901Z,2.20
2023-03-27T08:36:57.650Z,7.10
2023-03-27T08:37:57.653Z,2.70
2023-03-27T08:38:57.624Z,1.80
2023-03-27T08:39:57.631Z,0.90
2023-03-27T08:40:57.589Z,1.00
2023-03-27T08:41:57.596Z,1.00
2023-03-27T08:42:57.556Z,1.10
2023-03-27T08:43:57.562Z,0.90
2023-03-27T08:44:57.545Z,0.70
2023-03-27T08:45:57.734Z,0.40
2023-03-27T08:46:57.524Z,0.70
2023-03-27T08:47:57.518Z,0.80
2023-03-27T08:48:57.483Z,0.50
2023-03-27T08:49:57.501Z,0.70
2023-03-27T08:50:57.443Z,0.80
2023-03-27T08:51:57.428Z,0.60
2023-03-27T08:52:57.428Z,0.50
2023-03-27T08:53:57.405Z,0.50
2023-03-27T08:54:57.431Z,0.60
2023-03-27T08:55:57.671Z,1.50
2023-03-27T08:56:57.372Z,0.80
2023-03-27T08:57:57.349Z,0.90
2023-03-27T08:58:57.326Z,0.70
2023-03-27T08:59:57.338Z,0.70
2023-03-27T09:00:57.313Z,0.80
2023-03-27T09:01:57.339Z,0.70
2023-03-27T09:02:57.391Z,0.60
2023-03-27T09:03:57.403Z,0.80
2023-03-27T09:04:57.268Z,1.10
2023-03-27T09:05:57.378Z,0.50
2023-03-27T09:06:57.242Z,0.70
2023-03-27T09:07:57.217Z,1.30
2023-03-27T09:08:57.246Z,2.20
2023-03-27T09:09:57.210Z,1.80
2023-03-27T09:10:57.212Z,0.80
2023-03-27T09:11:57.204Z,1.90
2023-03-27T09:12:57.147Z,0.80
2023-03-27T09:13:57.136Z,1.40
2023-03-27T09:14:57.134Z,0.50
2023-03-27T09:15:57.367Z,0.50
2023-03-27T09:16:57.122Z,0.60
2023-03-27T09:17:57.120Z,0.60
2023-03-27T09:18:57.132Z,1.10
2023-03-27T09:19:57.061Z,1.00
2023-03-27T09:20:57.058Z,0.90
2023-03-27T09:21:57.052Z,0.80
2023-03-27T09:22:57.024Z,1.00
2023-03-27T09:23:57.032Z,1.00
2023-03-27T09:24:57.002Z,1.00
2023-03-27T09:25:57.233Z,1.30
2023-03-27T09:27:06.647Z,0.70
2023-03-27T09:27:56.991Z,0.60
2023-03-27T09:28:56.955Z,0.60
2023-03-27T09:30:05.458Z,0.50
2023-03-27T09:30:56.958Z,0.60
2023-03-27T09:31:56.907Z,1.30
2023-03-27T09:32:56.930Z,1.60
2023-03-27T09:33:56.910Z,0.60
2023-03-27T09:34:56.878Z,0.60
2023-03-27T09:35:57.116Z,1.00
2023-03-27T09:36:56.835Z,0.70
2023-03-27T09:37:56.821Z,0.90
2023-03-27T09:38:56.822Z,0.90
2023-03-27T09:39:56.816Z,0.70
2023-03-27T09:40:56.775Z,0.90
2023-03-27T09:41:56.780Z,0.50
2023-03-27T09:42:56.781Z,0.80
2023-03-27T09:43:56.772Z,0.80
2023-03-27T09:44:56.766Z,0.70
2023-03-27T09:45:56.823Z,0.60
2023-03-27T09:46:56.815Z,0.40
2023-03-27T09:47:56.750Z,0.40
2023-03-27T09:48:56.683Z,0.60
2023-03-27T09:49:56.675Z,0.80
2023-03-27T09:50:56.911Z,0.80
2023-03-27T09:51:56.637Z,0.70
2023-03-27T09:52:56.615Z,0.80
2023-03-27T09:53:56.633Z,0.70
2023-03-27T09:54:56.626Z,0.50
2023-03-27T09:55:56.599Z,0.70
2023-03-27T09:56:56.612Z,0.60
2023-03-27T09:57:56.579Z,0.40
2023-03-27T09:58:56.556Z,0.70
2023-03-27T09:59:56.564Z,0.80
2023-03-27T10:00:56.644Z,0.60
2023-03-27T10:01:56.505Z,0.80
2023-03-27T10:02:56.521Z,0.60
2023-03-27T10:03:56.530Z,0.70
2023-03-27T10:04:56.488Z,0.50
2023-03-27T10:05:56.515Z,0.60
2023-03-27T10:06:56.483Z,0.50
2023-03-27T10:07:56.450Z,0.40
2023-03-27T10:08:56.440Z,0.40
2023-03-27T10:09:56.426Z,0.50
2023-03-27T10:10:56.618Z,0.40
2023-03-27T10:11:56.431Z,0.30
2023-03-27T10:12:56.402Z,0.50
2023-03-27T10:13:56.413Z,0.40
2023-03-27T10:14:56.375Z,0.30
2023-03-27T10:15:56.408Z,0.50
2023-03-27T10:16:56.374Z,0.80
2023-03-27T10:17:56.355Z,0.70
2023-03-27T10:18:56.353Z,0.30
2023-03-27T10:19:56.302Z,0.50
2023-03-27T10:20:56.498Z,0.60
2023-03-27T10:21:56.297Z,0.40
2023-03-27T10:22:56.232Z,0.30
2023-03-27T10:23:56.243Z,0.60
2023-03-27T10:24:56.224Z,0.40
2023-03-27T10:25:56.198Z,0.40
2023-03-27T10:26:56.203Z,0.50
2023-03-27T10:27:56.173Z,0.50
2023-03-27T10:28:56.148Z,0.50
2023-03-27T10:29:56.145Z,0.60
2023-03-27T10:30:56.266Z,0.40
2023-03-27T10:31:56.145Z,0.40
2023-03-27T10:32:56.187Z,0.60
2023-03-27T10:33:56.099Z,0.40
2023-03-27T10:34:56.102Z,0.70
2023-03-27T10:35:56.047Z,0.60
2023-03-27T10:36:56.013Z,0.50
2023-03-27T10:37:56.064Z,0.80
2023-03-27T10:38:55.985Z,0.50
2023-03-27T10:39:56.027Z,0.40
2023-03-27T10:40:56.087Z,0.50
2023-03-27T10:41:55.968Z,0.50
2023-03-27T10:42:55.975Z,0.50
2023-03-27T10:43:55.942Z,0.50
2023-03-27T10:44:55.989Z,0.50
2023-03-27T10:45:55.978Z,0.50
2023-03-27T10:46:55.931Z,0.70
2023-03-27T10:47:55.921Z,0.70
2023-03-27T10:48:55.889Z,0.70
2023-03-27T10:49:55.865Z,0.50
2023-03-27T10:50:55.931Z,0.50
2023-03-27T10:51:55.824Z,0.60
2023-03-27T10:52:55.909Z,0.70
2023-03-27T10:53:55.916Z,0.40
2023-03-27T10:54:55.768Z,0.60
2023-03-27T10:55:55.755Z,0.40
2023-03-27T10:56:55.813Z,0.70
2023-03-27T10:57:55.752Z,0.50
2023-03-27T10:58:55.746Z,0.50
2023-03-27T10:59:55.744Z,0.40
2023-03-27T11:00:55.912Z,0.60
2023-03-27T11:01:55.703Z,0.90
2023-03-27T11:02:55.691Z,0.60
2023-03-27T11:03:55.689Z,0.40
2023-03-27T11:04:55.667Z,0.70
2023-03-27T11:05:55.657Z,1.40
2023-03-27T11:06:55.620Z,0.90
2023-03-27T11:07:55.594Z,0.80
2023-03-27T11:08:55.604Z,0.40
2023-03-27T11:09:55.571Z,0.40
2023-03-27T11:10:55.708Z,0.50
2023-03-27T11:11:55.550Z,0.50
2023-03-27T11:12:55.579Z,0.50
2023-03-27T11:13:55.549Z,0.70
2023-03-27T11:14:55.805Z,0.60
2023-03-27T11:15:55.513Z,1.40
2023-03-27T11:16:55.571Z,0.80
2023-03-27T11:17:55.547Z,0.50
2023-03-27T11:18:55.478Z,1.40
2023-03-27T11:19:55.474Z,1.60
2023-03-27T11:20:55.513Z,1.40
2023-03-27T11:21:55.414Z,1.10
2023-03-27T11:22:55.389Z,1.00
2023-03-27T11:23:55.405Z,2.60
2023-03-27T11:24:55.380Z,1.60
2023-03-27T11:25:55.367Z,0.70
2023-03-27T11:26:55.378Z,0.60
2023-03-27T11:27:55.322Z,0.50
2023-03-27T11:28:55.373Z,1.00
2023-03-27T11:29:55.307Z,1.10
2023-03-27T11:30:55.517Z,0.50
2023-03-27T11:31:55.374Z,0.90
2023-03-27T11:32:55.318Z,0.90
2023-03-27T11:33:55.272Z,0.50
2023-03-27T11:34:55.278Z,0.60
2023-03-27T11:35:55.230Z,0.80
2023-03-27T11:36:55.300Z,0.70
2023-03-27T11:37:55.236Z,0.60
2023-03-27T11:38:55.235Z,0.60
2023-03-27T11:39:55.227Z,0.80
2023-03-27T11:40:55.369Z,0.40
2023-03-27T11:41:55.181Z,0.70
2023-03-27T11:42:55.150Z,0.80
2023-03-27T11:43:55.142Z,0.40
2023-03-27T11:44:55.120Z,0.70
2023-03-27T11:45:55.109Z,0.60
2023-03-27T11:46:55.079Z,0.80
2023-03-27T11:47:55.160Z,0.30
2023-03-27T11:48:55.076Z,1.70
2023-03-27T11:49:55.030Z,1.30
2023-03-27T11:50:55.299Z,1.40
2023-03-27T11:51:55.010Z,1.40
2023-03-27T11:52:55.031Z,0.80
2023-03-27T11:53:54.974Z,1.20
2023-03-27T11:54:55.006Z,0.80
2023-03-27T11:55:54.980Z,1.10
2023-03-27T11:56:54.972Z,0.50
2023-03-27T11:57:54.940Z,0.30
2023-03-27T11:58:54.945Z,0.50
2023-03-27T11:59:54.940Z,0.60
2023-03-27T12:00:55.098Z,0.30
2023-03-27T12:01:54.907Z,0.80
2023-03-27T12:02:54.954Z,0.30
2023-03-27T12:03:55.028Z,0.70
2023-03-27T12:04:54.857Z,0.50
2023-03-27T12:05:54.844Z,0.50
2023-03-27T12:06:54.802Z,0.50
2023-03-27T12:07:54.802Z,0.60
2023-03-27T12:08:54.814Z,0.60
2023-03-27T12:09:54.779Z,0.40
2023-03-27T12:10:54.874Z,0.50
2023-03-27T12:11:54.742Z,0.80
2023-03-27T12:12:54.751Z,0.40
2023-03-27T12:14:01.663Z,0.60
2023-03-27T12:14:54.736Z,0.60
2023-03-27T12:15:54.677Z,0.40
2023-03-27T12:16:54.698Z,0.50
2023-03-27T12:17:54.703Z,0.50
2023-03-27T12:19:03.744Z,0.40
2023-03-27T12:19:54.632Z,0.50
2023-03-27T12:20:54.613Z,0.50
2023-03-27T12:21:54.610Z,0.30
2023-03-27T12:22:54.611Z,0.60
2023-03-27T12:23:54.590Z,0.40
2023-03-27T12:24:59.749Z,0.60
2023-03-27T12:25:54.553Z,0.60
2023-03-27T12:26:54.572Z,0.60
2023-03-27T12:27:54.597Z,0.70
2023-03-27T12:28:54.546Z,0.80
2023-03-27T12:29:54.533Z,0.30
2023-03-27T12:30:54.628Z,0.70
2023-03-27T12:31:54.517Z,0.80
2023-03-27T12:32:55.995Z,0.50
2023-03-27T12:33:54.443Z,0.50
2023-03-27T12:34:54.488Z,0.50
2023-03-27T12:35:54.452Z,0.70
2023-03-27T12:36:54.450Z,0.90
2023-03-27T12:37:54.394Z,0.60
2023-03-27T12:38:54.433Z,0.70
2023-03-27T12:39:54.376Z,0.40
2023-03-27T12:40:54.470Z,0.80
2023-03-27T12:41:54.342Z,0.40
2023-03-27T12:42:54.392Z,0.60
2023-03-27T12:43:54.324Z,0.70
2023-03-27T12:44:54.293Z,0.50
2023-03-27T12:45:54.312Z,0.50
2023-03-27T12:46:54.351Z,0.60
2023-03-27T12:47:54.324Z,0.50
2023-03-27T12:48:54.273Z,0.40
2023-03-27T12:49:54.244Z,0.50
2023-03-27T12:50:54.232Z,0.40
2023-03-27T12:51:54.305Z,0.50
2023-03-27T12:52:54.192Z,0.70
2023-03-27T12:53:54.183Z,0.60
2023-03-27T12:54:54.170Z,0.50
2023-03-27T12:55:54.218Z,0.60
2023-03-27T12:56:54.214Z,0.60
2023-03-27T12:57:54.267Z,0.70
2023-03-27T12:58:54.127Z,0.70
2023-03-27T12:59:54.100Z,0.70
2023-03-27T13:00:54.151Z,0.60
2023-03-27T13:01:54.126Z,0.70
2023-03-27T13:02:54.138Z,0.60
2023-03-27T13:03:54.136Z,0.70
2023-03-27T13:04:54.044Z,0.80
2023-03-27T13:05:54.079Z,0.60
2023-03-27T13:06:54.025Z,0.70
2023-03-27T13:07:54.716Z,0.40
2023-03-27T13:08:53.993Z,0.50
2023-03-27T13:09:54.010Z,0.40
2023-03-27T13:10:54.142Z,1.00
2023-03-27T13:11:53.934Z,0.60
2023-03-27T13:12:53.976Z,0.40
2023-03-27T13:13:53.919Z,0.70
2023-03-27T13:14:53.911Z,1.60
2023-03-27T13:15:53.949Z,0.80
2023-03-27T13:16:53.907Z,0.50
2023-03-27T13:17:53.896Z,0.50